Time;durP1;ratioP1;P1;durP2;ratioP2;P2;SDS_P1;SDS_P2;PMS_P1;PMS_P2;Temp;Humidity;BMP_temperature;BMP_pressure;BME280_temperature;BME280_humidity;BME280_pressure;Samples;Min_cycle;Max_cycle;Signal;HPM_P1;HPM_P2
2024/01/28 00:01:44;;;;;;;4.63;3.27;;;;;;;0.34;60.79;103298.38;5013384;27;96797;-48
2024/01/28 00:04:09;;;;;;;6.03;3.23;;;;;;;0.32;61.05;103295.25;5015105;27;96769;-48
2024/01/28 00:06:35;;;;;;;7.40;3.67;;;;;;;0.29;60.86;103294.06;5017943;27;96633;-48
2024/01/28 00:09:00;;;;;;;14.23;3.87;;;;;;;0.28;60.84;103281.63;5015587;27;105561;-48
2024/01/28 00:11:26;;;;;;;8.03;3.37;;;;;;;0.27;60.72;103280.84;5017232;27;97022;-48
2024/01/28 00:13:51;;;;;;;7.80;3.63;;;;;;;0.26;60.91;103270.31;5020102;27;99255;-48
2024/01/28 00:16:17;;;;;;;12.13;3.30;;;;;;;0.27;60.91;103274.63;5014617;27;99118;-47
2024/01/28 00:18:43;;;;;;;8.97;3.97;;;;;;;0.23;61.06;103268.38;5015860;27;97891;-48
2024/01/28 00:21:08;;;;;;;7.20;3.33;;;;;;;0.21;60.89;103268.00;5017220;27;96856;-48
2024/01/28 00:23:34;;;;;;;9.60;3.20;;;;;;;0.15;60.95;103273.00;5019263;27;96778;-48
2024/01/28 00:26:01;;;;;;;8.43;3.10;;;;;;;0.08;60.82;103269.47;5018689;27;97312;-48
2024/01/28 00:28:27;;;;;;;5.60;3.60;;;;;;;0.08;61.24;103267.50;5012786;27;97214;-48
2024/01/28 00:30:53;;;;;;;7.43;3.63;;;;;;;0.02;61.05;103270.97;5014342;27;97347;-48
2024/01/28 00:33:18;;;;;;;10.10;3.50;;;;;;;0.02;61.08;103269.03;5016057;27;96867;-48
2024/01/28 00:35:44;;;;;;;7.07;2.70;;;;;;;0.02;60.99;103269.03;5016506;27;96916;-48
2024/01/28 00:38:10;;;;;;;6.80;3.30;;;;;;;-0.05;61.10;103268.97;5014470;27;96696;-48
2024/01/28 00:40:35;;;;;;;4.60;3.10;;;;;;;-0.05;61.21;103268.97;5012570;27;96961;-48
2024/01/28 00:43:02;;;;;;;9.00;3.93;;;;;;;-0.02;61.34;103272.88;5017888;27;97338;-48
2024/01/28 00:45:28;;;;;;;8.83;3.17;;;;;;;0.00;61.32;103271.34;5016324;27;97748;-48
2024/01/28 00:47:53;;;;;;;16.20;3.40;;;;;;;0.03;61.26;103267.88;5015322;27;97070;-48
2024/01/28 00:50:20;;;;;;;10.90;3.90;;;;;;;0.05;61.24;103262.06;5014891;27;97223;-48
2024/01/28 00:52:46;;;;;;;6.30;3.10;;;;;;;0.06;61.39;103260.91;5015851;27;96757;-48
2024/01/28 00:55:11;;;;;;;9.40;4.47;;;;;;;0.04;61.05;103258.53;5013975;27;97773;-48
2024/01/28 00:57:36;;;;;;;7.33;4.00;;;;;;;0.04;61.11;103265.91;5017040;27;97046;-48
2024/01/28 01:00:03;;;;;;;10.47;4.13;;;;;;;0.02;61.12;103265.53;5016541;27;97072;-48
2024/01/28 01:02:28;;;;;;;7.27;3.80;;;;;;;-0.01;61.19;103255.41;5018649;27;97165;-48
2024/01/28 01:04:54;;;;;;;14.40;4.13;;;;;;;-0.02;61.19;103254.63;5015005;27;96747;-48
2024/01/28 01:07:19;;;;;;;7.67;4.10;;;;;;;-0.02;60.86;103251.13;5013538;27;98499;-48
2024/01/28 01:09:44;;;;;;;9.33;3.50;;;;;;;-0.04;61.08;103245.28;5020301;27;96614;-48
2024/01/28 01:12:10;;;;;;;11.70;4.67;;;;;;;-0.04;61.23;103248.00;5019232;27;96871;-48
2024/01/28 01:14:37;;;;;;;8.23;4.63;;;;;;;-0.04;61.17;103246.06;5017740;27;105199;-48
2024/01/28 01:17:05;;;;;;;9.67;4.07;;;;;;;-0.05;61.09;103249.16;5014840;27;98384;-48
2024/01/28 01:19:31;;;;;;;8.70;4.47;;;;;;;-0.05;61.11;103252.66;5017383;27;97219;-48
2024/01/28 01:21:57;;;;;;;8.57;4.40;;;;;;;-0.07;61.06;103243.31;5017992;27;98714;-48
2024/01/28 01:24:23;;;;;;;6.93;4.57;;;;;;;-0.09;61.20;103234.75;5015236;27;98678;-48
2024/01/28 01:26:48;;;;;;;9.23;4.40;;;;;;;-0.15;61.12;103233.53;5016027;27;97267;-49
2024/01/28 01:29:13;;;;;;;8.47;4.63;;;;;;;-0.18;61.19;103232.34;5013693;27;96998;-48
2024/01/28 01:31:39;;;;;;;7.70;4.13;;;;;;;-0.18;61.15;103243.25;5016452;27;96968;-48
2024/01/28 01:34:04;;;;;;;7.10;4.37;;;;;;;-0.17;61.24;103233.94;5017448;27;107224;-48
2024/01/28 01:36:30;;;;;;;8.40;4.40;;;;;;;-0.16;61.37;103229.28;5014192;27;103893;-48
2024/01/28 01:38:56;;;;;;;8.13;4.17;;;;;;;-0.16;61.31;103229.28;5012280;27;100330;-48
2024/01/28 01:41:23;;;;;;;9.13;4.47;;;;;;;-0.16;61.26;103218.38;5015300;27;97029;-48
2024/01/28 01:43:48;;;;;;;6.83;4.10;;;;;;;-0.16;61.11;103218.38;5014732;27;97205;-48
2024/01/28 01:46:14;;;;;;;10.90;4.30;;;;;;;-0.19;61.24;103225.38;5015848;27;97670;-48
2024/01/28 01:48:39;;;;;;;7.47;3.90;;;;;;;-0.20;61.53;103231.19;5015281;27;96978;-47
2024/01/28 01:51:06;;;;;;;10.53;4.87;;;;;;;-0.23;61.16;103237.38;5012511;27;97304;-47
2024/01/28 01:53:32;;;;;;;12.77;4.47;;;;;;;-0.27;61.13;103237.38;5016391;27;97486;-47
2024/01/28 01:55:58;;;;;;;9.43;4.40;;;;;;;-0.25;61.30;103226.09;5015299;27;97361;-47
2024/01/28 01:58:24;;;;;;;6.60;3.90;;;;;;;-0.28;61.37;103227.63;5016140;27;97081;-48
2024/01/28 02:00:49;;;;;;;8.27;4.13;;;;;;;-0.30;61.34;103223.72;5018405;27;96637;-47
2024/01/28 02:03:15;;;;;;;10.23;4.13;;;;;;;-0.32;61.36;103220.59;5015291;27;97288;-47
2024/01/28 02:05:40;;;;;;;14.57;4.43;;;;;;;-0.36;61.35;103222.53;5013167;27;97125;-47
2024/01/28 02:08:06;;;;;;;9.53;4.43;;;;;;;-0.40;61.42;103224.44;5017814;27;96735;-47
2024/01/28 02:10:32;;;;;;;6.67;4.40;;;;;;;-0.37;61.45;103224.47;5017129;27;97166;-47
2024/01/28 02:12:57;;;;;;;10.93;4.20;;;;;;;-0.33;61.79;103227.22;5016044;27;97395;-47
2024/01/28 02:15:22;;;;;;;8.63;4.00;;;;;;;-0.32;61.45;103223.31;5016741;27;96909;-48
2024/01/28 02:17:48;;;;;;;7.30;4.10;;;;;;;-0.35;61.54;103221.34;5015508;27;96677;-47
2024/01/28 02:20:13;;;;;;;7.20;4.20;;;;;;;-0.39;61.34;103215.09;5014326;27;97411;-47
2024/01/28 02:22:39;;;;;;;6.17;4.10;;;;;;;-0.46;61.30;103227.50;5010634;27;96917;-48
2024/01/28 02:25:05;;;;;;;12.03;4.20;;;;;;;-0.48;61.57;103218.94;5018931;27;97000;-47
2024/01/28 02:27:30;;;;;;;15.73;5.30;;;;;;;-0.48;61.73;103213.50;5014358;27;96809;-48
2024/01/28 02:29:56;;;;;;;7.80;4.30;;;;;;;-0.52;61.46;103203.75;5020904;27;97196;-47
2024/01/28 02:32:21;;;;;;;17.03;4.90;;;;;;;-0.55;61.42;103202.56;5020518;27;106675;-47
2024/01/28 02:34:47;;;;;;;9.73;3.60;;;;;;;-0.57;61.49;103213.03;5017746;27;96791;-47
2024/01/28 02:37:12;;;;;;;10.47;3.67;;;;;;;-0.57;61.71;103199.44;5016998;27;96917;-47
2024/01/28 02:39:38;;;;;;;8.40;3.90;;;;;;;-0.56;61.32;103197.53;5016443;27;96705;-47
2024/01/28 02:42:04;;;;;;;6.47;3.33;;;;;;;-0.54;61.52;103193.28;5014168;27;97575;-47
2024/01/28 02:44:30;;;;;;;11.63;4.43;;;;;;;-0.54;61.49;103196.00;5016403;27;97253;-47
2024/01/28 02:47:01;;;;;;;6.53;4.00;;;;;;;-0.55;61.51;103183.53;5017893;27;96657;-47
2024/01/28 02:49:26;;;;;;;7.50;3.23;;;;;;;-0.57;61.40;103210.31;5021304;27;97091;-47
2024/01/28 02:51:51;;;;;;;7.27;3.80;;;;;;;-0.54;61.49;103195.19;5015946;27;97326;-47
2024/01/28 02:54:17;;;;;;;9.50;4.10;;;;;;;-0.55;61.67;103188.97;5012862;27;96836;-47
2024/01/28 02:56:42;;;;;;;8.30;3.77;;;;;;;-0.57;61.62;103191.28;5012182;27;96976;-47
2024/01/28 02:59:07;;;;;;;9.17;3.23;;;;;;;-0.55;61.66;103182.75;5015173;27;96754;-47
2024/01/28 03:01:33;;;;;;;11.10;3.53;;;;;;;-0.54;61.72;103176.97;5013788;27;97151;-47
2024/01/28 03:03:58;;;;;;;7.17;3.40;;;;;;;-0.51;61.72;103173.47;5019384;27;104225;-48
2024/01/28 03:06:23;;;;;;;9.60;4.00;;;;;;;-0.49;61.74;103168.41;5017239;27;96988;-47
2024/01/28 03:08:49;;;;;;;6.83;3.57;;;;;;;-0.46;61.76;103184.00;5012734;27;100300;-47
2024/01/28 03:11:15;;;;;;;8.37;3.40;;;;;;;-0.42;61.53;103172.38;5011203;27;98785;-47
2024/01/28 03:13:40;;;;;;;6.30;3.70;;;;;;;-0.42;61.57;103175.09;5014691;27;97294;-47
2024/01/28 03:16:06;;;;;;;5.90;3.20;;;;;;;-0.41;61.75;103176.63;5014593;27;96688;-47
2024/01/28 03:18:31;;;;;;;11.43;4.17;;;;;;;-0.40;61.65;103172.78;5016940;27;97396;-47
2024/01/28 03:20:56;;;;;;;8.07;3.70;;;;;;;-0.40;61.72;103167.34;5011422;27;101706;-47
2024/01/28 03:23:22;;;;;;;8.87;3.87;;;;;;;-0.38;61.66;103168.50;5015953;27;96711;-47
2024/01/28 03:25:48;;;;;;;9.00;3.50;;;;;;;-0.36;61.64;103173.56;5014596;27;97056;-47
2024/01/28 03:28:13;;;;;;;8.03;3.13;;;;;;;-0.33;61.63;103175.53;5013476;27;97296;-47
2024/01/28 03:30:38;;;;;;;4.13;2.70;;;;;;;-0.33;61.61;103175.53;5013896;27;97950;-47
2024/01/28 03:33:04;;;;;;;10.10;3.20;;;;;;;-0.33;61.83;103170.84;5011845;27;97063;-47
2024/01/28 03:35:29;;;;;;;9.50;3.70;;;;;;;-0.32;61.73;103168.94;5012489;27;97106;-47
2024/01/28 03:37:55;;;;;;;6.53;3.40;;;;;;;-0.30;61.67;103166.59;5015459;27;97064;-47
2024/01/28 03:40:20;;;;;;;7.90;3.73;;;;;;;-0.31;61.55;103167.78;5011090;27;97497;-47
2024/01/28 03:42:45;;;;;;;6.00;3.43;;;;;;;-0.30;61.66;103169.31;5015831;27;97271;-47
2024/01/28 03:45:11;;;;;;;7.57;3.60;;;;;;;-0.29;61.63;103170.91;5017876;27;97061;-47
2024/01/28 03:47:36;;;;;;;8.33;3.30;;;;;;;-0.30;61.49;103170.13;5014839;27;96936;-47
2024/01/28 03:50:03;;;;;;;10.80;3.50;;;;;;;-0.33;61.88;103165.41;5012971;27;97904;-47
2024/01/28 03:52:29;;;;;;;7.60;4.07;;;;;;;-0.36;61.70;103159.97;5012440;27;96746;-47
2024/01/28 03:54:54;;;;;;;4.43;3.00;;;;;;;-0.37;61.65;103164.63;5017361;27;96699;-47
2024/01/28 03:57:19;;;;;;;10.33;3.40;;;;;;;-0.40;61.57;103161.88;5015201;27;97075;-47
2024/01/28 03:59:45;;;;;;;7.50;3.20;;;;;;;-0.43;61.73;103163.44;5012836;27;97104;-47
2024/01/28 04:02:10;;;;;;;7.00;3.23;;;;;;;-0.43;61.76;103165.34;5013271;27;97444;-47
2024/01/28 04:04:35;;;;;;;6.57;3.20;;;;;;;-0.44;61.59;103152.94;5014623;27;96817;-47
2024/01/28 04:07:01;;;;;;;4.37;2.67;;;;;;;-0.42;61.94;103150.63;5012766;27;96694;-47
2024/01/28 04:09:39;;;;;;;12.23;3.30;;;;;;;-0.41;62.00;103150.22;5014014;27;96870;-47
2024/01/28 04:12:05;;;;;;;9.10;3.23;;;;;;;-0.40;61.90;103151.00;5012776;27;97713;-47
2024/01/28 04:14:30;;;;;;;7.33;3.00;;;;;;;-0.38;61.80;103154.13;5014571;27;96648;-47
2024/01/28 04:16:56;;;;;;;9.73;2.80;;;;;;;-0.41;62.15;103141.28;5016060;27;97461;-47
2024/01/28 04:19:22;;;;;;;5.70;2.87;;;;;;;-0.38;61.95;103149.47;5013691;27;96953;-47
2024/01/28 04:21:47;;;;;;;4.87;2.47;;;;;;;-0.38;61.78;103148.69;5014013;27;96735;-47
2024/01/28 04:24:13;;;;;;;7.00;3.57;;;;;;;-0.41;61.85;103144.78;5014962;27;96860;-47
2024/01/28 04:26:38;;;;;;;7.57;3.63;;;;;;;-0.42;61.96;103145.19;5018343;27;98298;-47
2024/01/28 04:29:03;;;;;;;3.87;3.10;;;;;;;-0.46;61.83;103145.94;5018755;27;97688;-48
2024/01/28 04:31:29;;;;;;;6.10;2.53;;;;;;;-0.48;61.92;103142.81;5018578;27;96800;-47
2024/01/28 04:33:55;;;;;;;7.90;2.97;;;;;;;-0.48;61.90;103142.81;5019464;27;97069;-47
2024/01/28 04:36:21;;;;;;;8.43;3.17;;;;;;;-0.49;61.53;103140.47;5016658;27;96885;-47
2024/01/28 04:38:46;;;;;;;7.53;3.43;;;;;;;-0.51;61.77;103132.66;5015344;27;97720;-47
2024/01/28 04:41:11;;;;;;;9.60;3.10;;;;;;;-0.56;61.70;103134.97;5020289;27;98318;-47
2024/01/28 04:43:41;;;;;;;6.07;2.60;;;;;;;-0.59;61.59;103125.63;5019245;27;96803;-47
2024/01/28 04:46:06;;;;;;;8.27;2.60;;;;;;;-0.68;61.56;103125.19;5016536;27;96799;-47
2024/01/28 04:48:32;;;;;;;5.67;2.93;;;;;;;-0.72;61.76;103123.59;5017964;27;96716;-47
2024/01/28 04:50:57;;;;;;;4.40;2.60;;;;;;;-0.74;61.80;103117.75;5018842;27;97244;-47
2024/01/28 04:53:22;;;;;;;8.20;3.27;;;;;;;-0.78;62.12;103119.69;5015710;27;97225;-47
2024/01/28 04:55:48;;;;;;;5.70;2.70;;;;;;;-0.81;62.05;103115.78;5016537;27;96860;-47
2024/01/28 04:58:13;;;;;;;9.90;2.63;;;;;;;-0.79;61.96;103118.13;5013339;27;97023;-47
2024/01/28 05:00:39;;;;;;;7.43;3.00;;;;;;;-0.80;62.07;103120.06;5022533;27;97129;-47
2024/01/28 05:03:04;;;;;;;5.93;3.30;;;;;;;-0.79;61.99;103121.63;5016667;27;96698;-47
2024/01/28 05:05:30;;;;;;;5.00;2.80;;;;;;;-0.81;62.05;103115.78;5017426;27;97259;-47
2024/01/28 05:07:55;;;;;;;6.70;2.70;;;;;;;-0.79;61.99;103123.56;5013197;27;106804;-47
2024/01/28 05:10:20;;;;;;;3.50;2.70;;;;;;;-0.79;61.96;103113.47;5016904;27;97278;-47
2024/01/28 05:12:47;;;;;;;4.77;3.00;;;;;;;-0.76;61.92;103110.00;5017152;27;97031;-47
2024/01/28 05:15:16;;;;;;;6.57;2.63;;;;;;;-0.72;62.11;103112.72;5016895;27;96633;-47
2024/01/28 05:17:42;;;;;;;5.00;3.17;;;;;;;-0.72;61.87;103116.22;5016502;27;96793;-47
2024/01/28 05:20:09;;;;;;;4.23;2.50;;;;;;;-0.74;62.01;103120.47;5019543;27;97989;-47
2024/01/28 05:22:35;;;;;;;7.93;3.03;;;;;;;-0.80;61.79;103120.06;5016202;27;97382;-47
2024/01/28 05:25:02;;;;;;;10.77;2.83;;;;;;;-0.82;61.85;103116.94;5017913;27;97065;-47
2024/01/28 05:27:28;;;;;;;6.60;2.60;;;;;;;-0.83;62.11;103115.38;5017811;27;99227;-47
2024/01/28 05:29:55;;;;;;;9.37;2.97;;;;;;;-0.82;62.05;103103.38;5018436;27;96887;-47
2024/01/28 05:32:21;;;;;;;7.47;2.93;;;;;;;-0.81;62.11;103102.19;5016215;27;96753;-47
2024/01/28 05:34:46;;;;;;;5.30;2.73;;;;;;;-0.81;61.97;103091.31;5013509;27;96997;-47
2024/01/28 05:37:14;;;;;;;7.67;3.00;;;;;;;-0.85;61.88;103087.00;5015659;27;104349;-47
2024/01/28 05:39:40;;;;;;;4.23;2.67;;;;;;;-0.86;61.70;103083.53;5015431;27;97385;-47
2024/01/28 05:42:05;;;;;;;9.03;2.50;;;;;;;-0.88;62.06;103082.34;5016394;27;97013;-47
2024/01/28 05:44:31;;;;;;;7.83;3.17;;;;;;;-0.90;62.03;103082.72;5017152;27;96990;-47
2024/01/28 05:46:56;;;;;;;9.23;2.30;;;;;;;-0.93;61.87;103080.75;5016949;27;97408;-47
2024/01/28 05:49:21;;;;;;;5.87;2.23;;;;;;;-0.95;61.72;103079.59;5015015;27;97100;-47
2024/01/28 05:51:47;;;;;;;4.97;2.53;;;;;;;-1.00;62.03;103075.28;5016540;27;96825;-47
2024/01/28 05:54:12;;;;;;;5.27;2.33;;;;;;;-0.98;62.03;103083.03;5020276;27;97042;-47
2024/01/28 05:56:37;;;;;;;4.67;2.50;;;;;;;-1.00;61.91;103083.44;5017692;27;99172;-47
2024/01/28 05:59:03;;;;;;;8.07;2.50;;;;;;;-0.97;62.02;103088.13;5014426;27;101891;-47
2024/01/28 06:01:28;;;;;;;5.97;3.17;;;;;;;-0.97;62.25;103090.03;5020881;27;96775;-47
2024/01/28 06:03:53;;;;;;;4.53;2.30;;;;;;;-1.00;62.10;103083.44;5014969;27;96658;-47
2024/01/28 06:06:18;;;;;;;6.10;2.93;;;;;;;-1.01;62.21;103098.16;5014104;27;105948;-47
2024/01/28 06:08:44;;;;;;;5.40;3.00;;;;;;;-0.94;62.14;103086.56;5015854;27;101187;-47
2024/01/28 06:11:09;;;;;;;9.13;2.57;;;;;;;-0.92;61.99;103085.03;5014629;27;97173;-47
2024/01/28 06:13:36;;;;;;;7.03;3.03;;;;;;;-0.90;62.01;103087.38;5014355;27;97126;-47
2024/01/28 06:16:01;;;;;;;16.40;2.97;;;;;;;-0.90;61.96;103090.09;5015803;27;98657;-47
2024/01/28 06:18:27;;;;;;;10.10;2.30;;;;;;;-0.91;62.12;103085.81;5014413;27;97097;-47
2024/01/28 06:20:52;;;;;;;4.27;2.80;;;;;;;-0.90;61.78;103077.28;5016460;27;97158;-47
2024/01/28 06:23:18;;;;;;;7.77;2.80;;;;;;;-0.91;62.00;103078.44;5016112;27;96845;-47
2024/01/28 06:25:43;;;;;;;3.13;2.80;;;;;;;-0.93;61.92;103075.34;5017191;27;98529;-47
2024/01/28 06:28:09;;;;;;;7.13;2.73;;;;;;;-0.93;61.92;103077.25;5015578;27;97380;-47
2024/01/28 06:30:35;;;;;;;7.80;3.10;;;;;;;-0.94;61.89;103071.03;5021073;27;96743;-47
2024/01/28 06:33:02;;;;;;;6.07;2.27;;;;;;;-0.92;62.02;103073.41;5016042;27;97340;-47
2024/01/28 06:35:28;;;;;;;4.93;2.53;;;;;;;-0.95;61.90;103066.78;5016751;27;97554;-47
2024/01/28 06:37:53;;;;;;;10.93;2.47;;;;;;;-0.95;62.07;103076.88;5013227;27;97288;-47
2024/01/28 06:40:19;;;;;;;5.10;2.47;;;;;;;-0.92;62.15;103074.16;5013365;27;96834;-47
2024/01/28 06:42:45;;;;;;;6.73;2.70;;;;;;;-0.90;62.25;103069.13;5017123;27;97026;-47
2024/01/28 06:45:10;;;;;;;3.70;2.70;;;;;;;-0.88;62.02;103072.25;5017054;27;108224;-47
2024/01/28 06:47:35;;;;;;;5.63;2.67;;;;;;;-0.84;62.27;103064.91;5016954;27;97220;-47
2024/01/28 06:50:01;;;;;;;11.20;2.93;;;;;;;-0.84;62.20;103062.19;5012321;27;96894;-47
2024/01/28 06:52:26;;;;;;;3.43;2.23;;;;;;;-0.81;62.27;103064.13;5014482;27;97107;-47
2024/01/28 06:54:52;;;;;;;7.23;2.70;;;;;;;-0.79;62.01;103066.50;5017670;27;98525;-47
2024/01/28 06:57:19;;;;;;;3.63;2.30;;;;;;;-0.78;61.92;103068.81;5012913;27;97705;-47
2024/01/28 06:59:45;;;;;;;4.13;2.43;;;;;;;-0.79;61.97;103069.22;5016479;27;96774;-47
2024/01/28 07:02:11;;;;;;;9.03;3.00;;;;;;;-0.80;62.25;103064.94;5016399;27;97020;-47
2024/01/28 07:04:36;;;;;;;2.50;2.30;;;;;;;-0.81;62.32;103058.72;5017173;27;97386;-47
2024/01/28 07:07:02;;;;;;;4.17;2.20;;;;;;;-0.79;62.38;103066.50;5014878;27;97343;-47
2024/01/28 07:09:28;;;;;;;5.50;2.47;;;;;;;-0.78;62.36;103062.59;5015988;27;97164;-47
2024/01/28 07:11:53;;;;;;;6.70;2.63;;;;;;;-0.79;62.35;103055.63;5016275;27;97112;-47
2024/01/28 07:14:18;;;;;;;5.47;2.57;;;;;;;-0.78;62.30;103062.59;5014809;27;97155;-47
2024/01/28 07:16:44;;;;;;;5.30;2.30;;;;;;;-0.76;62.13;103066.50;5010561;27;97553;-47
2024/01/28 07:19:09;;;;;;;8.60;2.87;;;;;;;-0.76;62.33;103061.06;5014471;27;98546;-47
2024/01/28 07:21:34;;;;;;;6.47;2.30;;;;;;;-0.76;62.16;103060.28;5016460;27;96817;-47
2024/01/28 07:24:00;;;;;;;12.47;2.97;;;;;;;-0.76;62.24;103060.28;5016279;27;115288;-47
2024/01/28 07:26:25;;;;;;;5.20;2.10;;;;;;;-0.78;62.24;103071.56;5017856;27;97365;-47
2024/01/28 07:28:51;;;;;;;5.30;2.27;;;;;;;-0.78;62.27;103060.69;5013623;27;97159;-47
2024/01/28 07:31:16;;;;;;;4.90;2.13;;;;;;;-0.81;62.23;103064.13;5016714;27;97494;-47
2024/01/28 07:33:42;;;;;;;7.90;2.27;;;;;;;-0.81;62.16;103068.78;5014179;27;103271;-47
2024/01/28 07:36:07;;;;;;;4.10;2.73;;;;;;;-0.82;62.37;103059.88;5014077;27;98513;-47
2024/01/28 07:38:33;;;;;;;6.27;2.77;;;;;;;-0.84;62.22;103064.91;5013366;27;97166;-47
2024/01/28 07:40:59;;;;;;;8.60;2.47;;;;;;;-0.84;62.35;103064.91;5015480;27;97379;-47
2024/01/28 07:43:24;;;;;;;8.47;2.57;;;;;;;-0.80;62.34;103062.22;5011261;27;98771;-47
2024/01/28 07:45:50;;;;;;;5.50;2.23;;;;;;;-0.80;62.35;103064.94;5014450;27;97021;-47
2024/01/28 07:48:16;;;;;;;5.37;1.87;;;;;;;-0.80;62.21;103063.00;5013570;27;96769;-47
2024/01/28 07:50:42;;;;;;;7.40;2.80;;;;;;;-0.79;62.63;103061.81;5017469;27;96836;-47
2024/01/28 07:53:08;;;;;;;7.90;2.60;;;;;;;-0.75;62.45;103062.63;5013351;27;97410;-47
2024/01/28 07:55:33;;;;;;;3.20;2.27;;;;;;;-0.73;62.50;103054.88;5015315;27;97035;-47
2024/01/28 07:57:59;;;;;;;3.60;2.33;;;;;;;-0.67;62.47;103047.16;5014717;27;97366;-47
2024/01/28 08:00:25;;;;;;;2.17;1.97;;;;;;;-0.64;62.70;103040.97;5020268;27;97113;-47
2024/01/28 08:02:51;;;;;;;3.37;2.57;;;;;;;-0.61;62.50;103032.81;5020110;27;98871;-47
2024/01/28 08:05:16;;;;;;;3.30;2.10;;;;;;;-0.57;62.56;103027.38;5018057;27;98500;-47
2024/01/28 08:07:42;;;;;;;8.93;2.60;;;;;;;-0.53;62.76;103031.66;5018776;27;97251;-47
2024/01/28 08:10:08;;;;;;;4.90;2.63;;;;;;;-0.47;62.69;103029.38;5017755;27;97187;-47
2024/01/28 08:12:33;;;;;;;6.20;2.77;;;;;;;-0.40;62.39;103023.97;5016745;27;97038;-47
2024/01/28 08:14:59;;;;;;;7.07;2.50;;;;;;;-0.33;62.51;103012.34;5018649;27;98334;-47
2024/01/28 08:17:24;;;;;;;2.20;2.00;;;;;;;-0.29;62.67;103015.84;5016678;27;97128;-47
2024/01/28 08:19:49;;;;;;;4.80;2.20;;;;;;;-0.26;62.48;103009.63;5018832;27;97013;-47
2024/01/28 08:22:15;;;;;;;4.77;2.47;;;;;;;-0.22;62.71;103032.19;5017046;27;100744;-47
2024/01/28 08:24:40;;;;;;;7.20;2.50;;;;;;;-0.14;62.66;103014.72;5018267;27;98374;-47
2024/01/28 08:27:05;;;;;;;6.10;2.30;;;;;;;-0.09;62.68;103012.41;5015630;27;96709;-47
2024/01/28 08:29:31;;;;;;;8.60;2.83;;;;;;;-0.04;62.86;103022.13;5023065;27;96829;-47
2024/01/28 08:31:59;;;;;;;4.23;2.23;;;;;;;0.02;62.59;103006.97;5017762;27;97981;-47
2024/01/28 08:34:24;;;;;;;2.97;2.27;;;;;;;0.09;62.68;102996.13;5014429;27;96814;-47
2024/01/28 08:36:50;;;;;;;5.47;1.93;;;;;;;0.16;62.53;103002.34;5016841;27;97888;-47
2024/01/28 08:39:15;;;;;;;9.93;2.50;;;;;;;0.21;62.82;103003.91;5019030;27;96840;-47
2024/01/28 08:41:41;;;;;;;7.97;2.30;;;;;;;0.27;62.55;103013.25;5016174;27;98034;-47
2024/01/28 08:44:09;;;;;;;7.80;2.57;;;;;;;0.35;62.85;103012.09;5017325;27;97505;-47
2024/01/28 08:46:39;;;;;;;2.57;1.87;;;;;;;0.40;62.57;103011.72;5017782;27;96929;-47
2024/01/28 08:49:04;;;;;;;3.40;1.70;;;;;;;0.45;62.53;103014.06;5012015;27;96761;-47
2024/01/28 08:51:30;;;;;;;3.43;2.17;;;;;;;0.50;62.73;103010.16;5016963;27;96973;-47
2024/01/28 08:53:55;;;;;;;6.77;2.10;;;;;;;0.52;62.73;103005.84;5018082;27;113409;-47
2024/01/28 08:56:20;;;;;;;2.30;1.43;;;;;;;0.56;62.62;103009.38;5015154;27;101389;-47
2024/01/28 08:58:46;;;;;;;5.07;1.97;;;;;;;0.59;62.54;103005.88;5017364;27;96729;-47
2024/01/28 09:01:13;;;;;;;4.43;1.90;;;;;;;0.61;62.78;103011.69;5013091;27;97466;-47
2024/01/28 09:03:39;;;;;;;6.70;1.83;;;;;;;0.64;62.63;103016.38;5014216;27;97417;-47
2024/01/28 09:06:06;;;;;;;4.03;2.10;;;;;;;0.68;62.61;103017.16;5015771;27;97240;-47
2024/01/28 09:08:31;;;;;;;4.27;2.07;;;;;;;0.70;62.80;103009.38;5019051;27;97492;-47
2024/01/28 09:10:57;;;;;;;7.67;1.83;;;;;;;0.73;62.73;103014.03;5018239;27;97573;-47
2024/01/28 09:13:25;;;;;;;12.00;2.50;;;;;;;0.78;62.70;103012.88;5014908;27;97450;-47
2024/01/28 09:15:51;;;;;;;4.10;2.03;;;;;;;0.81;62.88;103010.13;5018094;27;97127;-47
2024/01/28 09:18:16;;;;;;;11.57;2.30;;;;;;;0.81;62.79;103001.97;5015730;27;100275;-47
2024/01/28 09:20:42;;;;;;;4.30;1.53;;;;;;;0.85;62.92;103010.13;5018121;27;97275;-47
2024/01/28 09:23:07;;;;;;;4.60;1.63;;;;;;;0.88;62.98;103018.31;5015990;27;97367;-47
2024/01/28 09:25:33;;;;;;;8.97;2.83;;;;;;;0.92;63.03;103021.81;5019726;27;96722;-47
2024/01/28 09:27:59;;;;;;;5.73;2.07;;;;;;;0.96;62.68;103011.66;5012628;27;96772;-47
2024/01/28 09:30:25;;;;;;;2.70;1.53;;;;;;;0.98;62.83;103014.78;5013077;27;98637;-47
2024/01/28 09:32:50;;;;;;;5.57;2.23;;;;;;;0.99;62.96;103019.06;5014638;27;96974;-47
2024/01/28 09:35:16;;;;;;;6.43;2.00;;;;;;;1.02;63.02;103018.25;5014351;27;96670;-47
2024/01/28 09:37:41;;;;;;;4.17;1.80;;;;;;;1.05;63.20;103017.50;5015311;27;97101;-47
2024/01/28 09:40:07;;;;;;;4.03;2.10;;;;;;;1.09;63.04;103011.25;5015935;27;96849;-47
2024/01/28 09:42:51;;;;;;;4.50;1.10;;;;;;;1.15;63.11;103007.75;5013358;27;97598;-47
2024/01/28 09:45:17;;;;;;;6.43;1.57;;;;;;;1.20;62.83;103017.44;5016589;27;97214;-47
2024/01/28 09:47:43;;;;;;;3.83;1.80;;;;;;;1.20;63.12;103001.88;5016303;27;97402;-47
2024/01/28 09:50:08;;;;;;;4.83;1.60;;;;;;;1.31;63.44;103021.69;5015335;27;97280;-47
2024/01/28 09:52:34;;;;;;;3.13;1.63;;;;;;;1.37;63.42;103024.81;5013099;27;97065;-47
2024/01/28 09:54:59;;;;;;;7.80;1.57;;;;;;;1.45;63.00;103016.22;5016037;27;96657;-47
2024/01/28 09:57:25;;;;;;;3.80;1.53;;;;;;;1.50;63.07;103015.03;5017567;27;99152;-47
2024/01/28 09:59:50;;;;;;;4.10;1.60;;;;;;;1.56;63.20;103021.63;5017775;27;96866;-47
2024/01/28 10:02:18;;;;;;;5.43;1.80;;;;;;;1.63;62.71;103016.16;5014450;27;97805;-47
2024/01/28 10:04:45;;;;;;;4.07;2.30;;;;;;;1.67;63.19;103012.22;5014879;27;96882;-47
2024/01/28 10:07:11;;;;;;;9.63;2.33;;;;;;;1.73;63.54;103012.56;5014809;27;96953;-47
2024/01/28 10:09:37;;;;;;;3.00;1.30;;;;;;;1.81;63.09;103012.13;5012029;27;97947;-47
2024/01/28 10:12:02;;;;;;;1.83;1.50;;;;;;;1.89;63.39;102996.50;5018197;27;97183;-47
2024/01/28 10:14:28;;;;;;;3.93;1.50;;;;;;;1.96;63.10;103007.38;5015238;27;96950;-47
2024/01/28 10:16:54;;;;;;;3.33;1.70;;;;;;;2.01;63.06;103012.41;5016270;27;96613;-47
2024/01/28 10:19:20;;;;;;;3.33;1.53;;;;;;;2.09;63.39;103005.72;5016723;27;97110;-47
2024/01/28 10:21:46;;;;;;;6.00;2.00;;;;;;;2.13;62.96;103014.69;5014106;27;97462;-47
2024/01/28 10:24:14;;;;;;;3.60;1.67;;;;;;;2.19;63.16;103009.56;5015739;27;97481;-47
2024/01/28 10:26:40;;;;;;;2.13;1.20;;;;;;;2.25;63.10;103036.06;5012973;27;96961;-47
2024/01/28 10:29:08;;;;;;;4.20;1.60;;;;;;;2.31;62.82;103012.59;5013883;27;97411;-47
2024/01/28 10:31:33;;;;;;;1.80;1.30;;;;;;;2.39;62.84;103005.94;5015040;27;97260;-47
2024/01/28 10:33:59;;;;;;;4.83;1.70;;;;;;;2.47;62.90;103006.66;5014132;27;98086;-47
2024/01/28 10:36:25;;;;;;;4.77;1.53;;;;;;;2.54;63.05;102996.44;5019350;27;98115;-48
2024/01/28 10:38:52;;;;;;;3.17;1.47;;;;;;;2.63;62.68;102995.19;5017738;27;97552;-47
2024/01/28 10:41:18;;;;;;;9.40;1.20;;;;;;;2.70;62.70;102995.94;5015180;27;96815;-47
2024/01/28 10:44:05;;;;;;;5.20;1.50;;;;;;;2.78;62.26;102997.41;5022799;27;96890;-47
2024/01/28 10:46:40;;;;;;;13.53;1.67;;;;;;;2.86;62.26;103009.03;5017301;27;97380;-47
2024/01/28 10:49:06;;;;;;;4.33;1.30;;;;;;;2.97;62.71;102993.28;5021524;27;99065;-47
2024/01/28 10:51:37;;;;;;;1.90;1.47;;;;;;;3.03;62.45;102986.22;5012814;27;97375;-47
2024/01/28 10:54:04;;;;;;;1.93;1.37;;;;;;;3.09;62.65;102981.84;5015870;27;97107;-47
2024/01/28 10:56:32;;;;;;;4.67;1.57;;;;;;;3.13;62.36;102983.38;5014285;27;96736;-47
2024/01/28 10:58:58;;;;;;;3.27;1.77;;;;;;;3.19;62.61;102965.31;5016930;27;97246;-47
2024/01/28 11:01:24;;;;;;;3.90;1.73;;;;;;;3.29;62.02;102960.91;5012515;27;96937;-47
2024/01/28 11:03:51;;;;;;;1.60;1.50;;;;;;;3.38;61.94;102961.16;5018824;27;96745;-47
2024/01/28 11:06:17;;;;;;;5.60;1.67;;;;;;;3.45;61.92;102957.56;5018952;27;97074;-47
2024/01/28 11:08:45;;;;;;;4.33;1.60;;;;;;;3.50;61.61;102955.16;5016654;27;97638;-47
2024/01/28 11:11:14;;;;;;;4.30;1.77;;;;;;;3.58;61.55;102948.41;5016581;27;97697;-47
2024/01/28 11:13:40;;;;;;;2.10;1.23;;;;;;;3.65;61.84;102947.53;5017260;27;96678;-48
2024/01/28 11:16:07;;;;;;;3.00;1.27;;;;;;;3.74;61.56;102939.56;5014475;27;97233;-48
2024/01/28 11:18:32;;;;;;;4.77;1.30;;;;;;;3.83;61.38;102935.16;5018332;27;97267;-48
2024/01/28 11:21:09;;;;;;;2.03;1.47;;;;;;;3.97;60.62;102923.97;5016225;27;96906;-48